createdAt,value
2023-03-08T00:02:39.929Z,15.63
2023-03-08T00:05:25.297Z,15.37
2023-03-08T00:08:10.767Z,15.87
2023-03-08T00:10:55.935Z,15.10
2023-03-08T00:13:41.641Z,14.07
2023-03-08T00:16:27.180Z,12.63
2023-03-08T00:19:12.303Z,13.83
2023-03-08T00:21:57.858Z,11.60
2023-03-08T00:24:43.184Z,12.73
2023-03-08T00:27:28.026Z,11.47
2023-03-08T00:30:13.724Z,10.80
2023-03-08T00:32:58.734Z,10.93
2023-03-08T00:35:43.642Z,11.60
2023-03-08T00:38:31.516Z,10.17
2023-03-08T00:41:16.543Z,10.73
2023-03-08T00:44:01.578Z,10.57
2023-03-08T00:46:47.001Z,10.50
2023-03-08T00:49:32.168Z,10.57
2023-03-08T00:52:17.068Z,10.37
2023-03-08T00:55:01.995Z,9.07
2023-03-08T00:57:47.386Z,9.20
2023-03-08T01:00:32.778Z,10.33
2023-03-08T01:03:19.490Z,9.33
2023-03-08T01:06:08.724Z,9.80
2023-03-08T01:08:54.070Z,10.77
2023-03-08T01:11:39.601Z,10.20
2023-03-08T01:14:24.930Z,10.03
2023-03-08T01:17:10.339Z,10.30
2023-03-08T01:19:55.609Z,10.40
2023-03-08T01:22:40.941Z,11.23
2023-03-08T01:25:27.051Z,11.30
2023-03-08T01:28:14.855Z,12.03
2023-03-08T01:31:20.840Z,12.43
2023-03-08T01:34:05.853Z,12.17
2023-03-08T01:36:50.691Z,12.47
2023-03-08T01:39:35.571Z,12.80
2023-03-08T01:42:20.970Z,13.03
2023-03-08T01:45:26.892Z,13.20
2023-03-08T01:48:14.302Z,12.60
2023-03-08T01:51:02.373Z,12.80
2023-03-08T01:53:47.844Z,13.23
2023-03-08T01:56:34.405Z,13.90
2023-03-08T01:59:22.282Z,14.83
2023-03-08T02:02:07.473Z,15.60
2023-03-08T02:04:52.692Z,15.33
2023-03-08T02:07:37.517Z,15.70
2023-03-08T02:10:23.006Z,17.20
2023-03-08T02:13:09.216Z,18.10
2023-03-08T02:15:55.986Z,18.97
2023-03-08T02:19:01.609Z,18.73
2023-03-08T02:21:46.944Z,19.17
2023-03-08T02:24:32.405Z,20.40
2023-03-08T02:27:21.548Z,19.43
2023-03-08T02:30:07.825Z,20.37
2023-03-08T02:32:53.058Z,19.73
2023-03-08T02:35:38.474Z,19.67
2023-03-08T02:38:23.685Z,20.43
2023-03-08T02:41:08.882Z,20.93
2023-03-08T02:43:53.824Z,21.03
2023-03-08T02:46:39.985Z,20.70
2023-03-08T02:49:25.235Z,19.67
2023-03-08T02:52:10.513Z,19.10
2023-03-08T02:54:56.173Z,20.53
2023-03-08T02:57:41.384Z,19.87
2023-03-08T03:00:26.631Z,19.13
2023-03-08T03:03:11.584Z,19.37
2023-03-08T03:05:56.966Z,19.87
2023-03-08T03:08:42.550Z,18.93
2023-03-08T03:11:27.613Z,20.97
2023-03-08T03:14:12.577Z,20.53
2023-03-08T03:16:58.817Z,19.63
2023-03-08T03:19:43.944Z,21.13
2023-03-08T03:22:28.786Z,20.90
2023-03-08T03:25:14.390Z,22.17
2023-03-08T03:27:59.534Z,26.37
2023-03-08T03:30:44.671Z,26.20
2023-03-08T03:33:30.014Z,28.67
2023-03-08T03:36:18.118Z,28.17
2023-03-08T03:39:03.657Z,27.57
2023-03-08T03:41:49.548Z,27.57
2023-03-08T03:44:34.806Z,27.60
2023-03-08T03:47:19.675Z,29.00
2023-03-08T03:50:04.830Z,29.30
2023-03-08T03:52:49.686Z,30.83
2023-03-08T03:55:34.560Z,31.97
2023-03-08T03:58:19.476Z,32.50
2023-03-08T04:01:10.363Z,31.50
2023-03-08T04:03:56.269Z,32.20
2023-03-08T04:06:41.447Z,33.43
2023-03-08T04:09:26.774Z,34.87
2023-03-08T04:12:12.145Z,33.93
2023-03-08T04:14:57.234Z,37.50
2023-03-08T04:17:42.141Z,39.17
2023-03-08T04:20:27.147Z,37.80
2023-03-08T04:23:12.698Z,38.43
2023-03-08T04:25:57.602Z,38.40
2023-03-08T04:28:43.169Z,38.00
2023-03-08T04:31:29.607Z,38.13
2023-03-08T04:34:14.687Z,40.30
2023-03-08T04:36:59.664Z,40.73
2023-03-08T04:39:44.508Z,41.57
2023-03-08T04:42:29.624Z,40.13
2023-03-08T04:45:15.013Z,40.57
2023-03-08T04:48:00.459Z,41.23
2023-03-08T04:50:45.505Z,43.53
2023-03-08T04:53:31.803Z,44.37
2023-03-08T04:56:17.909Z,43.63
2023-03-08T04:59:03.545Z,45.47
2023-03-08T05:01:48.495Z,44.43
2023-03-08T05:04:33.598Z,45.30
2023-03-08T05:07:19.001Z,43.43
2023-03-08T05:10:04.682Z,40.60
2023-03-08T05:12:49.766Z,44.13
2023-03-08T05:15:34.651Z,43.73
2023-03-08T05:18:19.767Z,43.60
2023-03-08T05:21:13.602Z,43.23
2023-03-08T05:24:00.247Z,43.50
2023-03-08T05:26:45.498Z,44.53
2023-03-08T05:29:30.342Z,45.40
2023-03-08T05:32:15.857Z,46.90
2023-03-08T05:35:01.254Z,46.80
2023-03-08T05:37:46.658Z,46.63
2023-03-08T05:40:31.567Z,44.93
2023-03-08T05:43:17.897Z,46.57
2023-03-08T05:46:05.965Z,46.73
2023-03-08T05:48:51.030Z,42.60
2023-03-08T05:51:36.529Z,45.50
2023-03-08T05:54:21.896Z,47.17
2023-03-08T05:57:06.832Z,46.33
2023-03-08T05:59:52.302Z,45.57
2023-03-08T06:02:37.504Z,49.03
2023-03-08T06:05:22.401Z,47.00
2023-03-08T06:08:08.007Z,46.90
2023-03-08T06:10:53.311Z,48.20
2023-03-08T06:13:38.294Z,47.63
2023-03-08T06:16:23.098Z,49.07
2023-03-08T06:19:08.460Z,49.83
2023-03-08T06:21:53.800Z,49.23
2023-03-08T06:24:38.823Z,51.43
2023-03-08T06:27:24.092Z,50.27
2023-03-08T06:30:10.020Z,51.93
2023-03-08T06:32:55.310Z,50.80
2023-03-08T06:35:40.560Z,52.00
2023-03-08T06:38:29.445Z,57.83
2023-03-08T06:41:17.521Z,51.20
2023-03-08T06:44:02.754Z,49.77
2023-03-08T06:46:47.971Z,51.20
2023-03-08T06:49:34.117Z,50.20
2023-03-08T06:52:19.179Z,53.63
2023-03-08T06:55:05.484Z,58.73
2023-03-08T06:57:50.848Z,46.93
2023-03-08T07:00:36.460Z,47.17
2023-03-08T07:03:21.804Z,49.03
2023-03-08T07:06:09.601Z,50.53
2023-03-08T07:08:54.921Z,45.33
2023-03-08T07:12:15.833Z,47.20
2023-03-08T07:15:00.938Z,45.80
2023-03-08T07:17:47.600Z,43.90
2023-03-08T07:20:32.823Z,45.13
2023-03-08T07:23:18.259Z,44.53
2023-03-08T07:26:07.208Z,43.57
2023-03-08T07:28:52.768Z,42.40
2023-03-08T07:31:38.056Z,39.90
2023-03-08T07:34:22.942Z,40.70
2023-03-08T07:37:16.945Z,39.27
2023-03-08T07:40:02.037Z,39.20
2023-03-08T07:42:47.279Z,38.63
2023-03-08T07:45:33.293Z,39.33
2023-03-08T07:48:18.531Z,38.00
2023-03-08T07:51:08.107Z,37.20
2023-03-08T07:53:53.393Z,36.67
2023-03-08T07:56:38.877Z,36.50
2023-03-08T07:59:24.754Z,36.53
2023-03-08T08:02:12.533Z,36.60
2023-03-08T08:04:57.576Z,35.90
2023-03-08T08:07:46.483Z,34.03
2023-03-08T08:10:31.601Z,35.23
2023-03-08T08:13:17.755Z,34.20
2023-03-08T08:16:03.405Z,34.33
2023-03-08T08:18:48.669Z,38.63
2023-03-08T08:21:33.880Z,34.07
2023-03-08T08:24:19.311Z,33.97
2023-03-08T08:27:04.847Z,33.97
2023-03-08T08:29:50.000Z,31.50
2023-03-08T08:32:36.521Z,28.27
2023-03-08T08:35:23.958Z,29.67
2023-03-08T08:38:12.447Z,29.97
2023-03-08T08:41:05.277Z,30.87
2023-03-08T08:43:50.994Z,27.87
2023-03-08T08:46:36.121Z,29.10
2023-03-08T08:49:21.492Z,30.17
2023-03-08T08:52:06.804Z,28.77
2023-03-08T08:54:53.070Z,28.80
2023-03-08T08:57:38.255Z,28.80
2023-03-08T09:00:23.219Z,28.30
2023-03-08T09:03:08.538Z,28.93
2023-03-08T09:05:53.429Z,28.33
2023-03-08T09:08:38.964Z,25.73
2023-03-08T09:11:25.668Z,25.00
2023-03-08T09:14:10.751Z,24.50
2023-03-08T09:16:55.860Z,22.40
2023-03-08T09:19:41.091Z,23.43
2023-03-08T09:22:26.694Z,23.83
2023-03-08T09:25:13.086Z,24.70
2023-03-08T09:27:57.958Z,23.93
2023-03-08T09:30:43.336Z,24.70
2023-03-08T09:33:28.663Z,25.10
2023-03-08T09:36:14.338Z,26.03
2023-03-08T09:38:59.645Z,25.10
2023-03-08T09:41:46.085Z,22.10
2023-03-08T09:45:02.549Z,22.53
2023-03-08T09:47:51.466Z,22.67
2023-03-08T09:50:50.858Z,20.57
2023-03-08T09:53:42.893Z,20.17
2023-03-08T09:56:28.029Z,19.00
2023-03-08T09:59:32.281Z,19.07
2023-03-08T10:02:24.359Z,17.50
2023-03-08T10:05:30.162Z,18.27
2023-03-08T10:08:28.968Z,18.03
2023-03-08T10:11:36.034Z,18.37
2023-03-08T10:14:31.184Z,18.13
2023-03-08T10:17:28.183Z,15.00
2023-03-08T10:20:24.636Z,16.37
2023-03-08T10:23:16.993Z,15.57
2023-03-08T10:26:05.232Z,14.23
2023-03-08T10:28:50.605Z,12.90
2023-03-08T10:31:36.426Z,13.37
2023-03-08T10:34:32.554Z,12.00
2023-03-08T10:37:21.170Z,13.80
2023-03-08T10:40:17.199Z,12.43
2023-03-08T10:43:06.325Z,13.00
2023-03-08T10:46:11.106Z,12.10
2023-03-08T10:49:19.493Z,11.93
2023-03-08T10:52:04.850Z,12.40
2023-03-08T10:55:09.335Z,12.20
2023-03-08T10:58:02.319Z,12.10
2023-03-08T11:00:54.197Z,13.50
2023-03-08T11:03:39.444Z,13.77
2023-03-08T11:06:25.592Z,13.17
2023-03-08T11:09:32.550Z,13.67
2023-03-08T11:12:26.021Z,13.33
2023-03-08T11:15:18.323Z,12.77
2023-03-08T11:18:16.383Z,11.97
2023-03-08T11:21:13.459Z,13.80
2023-03-08T11:24:13.648Z,11.70
2023-03-08T11:27:24.641Z,14.30
2023-03-08T11:30:15.985Z,15.93
2023-03-08T11:33:34.852Z,12.33
2023-03-08T11:36:49.212Z,10.33
2023-03-08T11:39:38.169Z,9.47
2023-03-08T11:42:57.615Z,7.43
2023-03-08T11:45:54.937Z,8.80
2023-03-08T11:48:43.420Z,9.10
2023-03-08T11:51:48.205Z,8.30
2023-03-08T11:54:42.941Z,8.43
2023-03-08T11:57:34.733Z,7.43
2023-03-08T12:00:29.818Z,7.67
2023-03-08T12:03:34.936Z,7.10
2023-03-08T12:06:29.192Z,7.10
2023-03-08T12:09:42.608Z,7.13
2023-03-08T12:12:39.201Z,6.20
2023-03-08T12:15:39.358Z,7.40
2023-03-08T12:18:36.752Z,6.00
2023-03-08T12:21:40.177Z,4.90
2023-03-08T12:24:46.509Z,6.10
2023-03-08T12:27:44.037Z,12.47
2023-03-08T12:31:02.016Z,12.00
2023-03-08T12:33:47.939Z,9.90
2023-03-08T12:36:39.165Z,8.60
2023-03-08T12:39:33.623Z,11.70
2023-03-08T12:42:37.121Z,8.40
2023-03-08T12:45:22.460Z,8.40
2023-03-08T12:48:07.350Z,9.53
2023-03-08T12:51:00.039Z,6.73
2023-03-08T12:53:48.552Z,7.67
2023-03-08T12:56:54.810Z,8.10
2023-03-08T12:59:40.156Z,12.43
2023-03-08T13:02:34.184Z,8.50
2023-03-08T13:05:28.261Z,13.73
2023-03-08T13:08:13.686Z,10.57
2023-03-08T13:11:05.460Z,11.67
2023-03-08T13:13:58.681Z,13.07
2023-03-08T13:16:44.077Z,12.17
2023-03-08T13:19:31.328Z,13.23
2023-03-08T13:22:24.159Z,10.13
2023-03-08T13:25:27.767Z,7.40
2023-03-08T13:28:18.238Z,9.00
2023-03-08T13:31:17.973Z,7.23
2023-03-08T13:34:03.576Z,6.70
2023-03-08T13:36:48.779Z,6.70
2023-03-08T13:39:33.773Z,9.07
2023-03-08T13:42:18.844Z,8.13
2023-03-08T13:45:10.737Z,6.60
2023-03-08T13:47:58.766Z,6.93
2023-03-08T13:50:46.165Z,6.90
2023-03-08T13:53:34.343Z,8.97
2023-03-08T13:56:27.919Z,9.63
2023-03-08T13:59:19.796Z,6.57
2023-03-08T14:02:19.058Z,5.87
2023-03-08T14:05:25.959Z,7.23
2023-03-08T14:08:22.643Z,6.53
2023-03-08T14:11:15.798Z,8.70
2023-03-08T14:14:03.604Z,10.17
2023-03-08T14:16:52.772Z,11.80
2023-03-08T14:19:40.259Z,14.63
2023-03-08T14:22:38.685Z,15.17
2023-03-08T14:25:29.062Z,18.27
2023-03-08T14:28:42.249Z,14.97
2023-03-08T14:31:29.497Z,14.93
2023-03-08T14:34:22.698Z,11.33
2023-03-08T14:37:11.323Z,11.07
2023-03-08T14:40:20.003Z,10.90
2023-03-08T14:43:06.918Z,19.07
2023-03-08T14:46:01.879Z,9.27
2023-03-08T14:49:00.628Z,7.40
2023-03-08T14:51:45.577Z,8.27
2023-03-08T14:54:36.099Z,9.67
2023-03-08T14:57:29.018Z,10.07
2023-03-08T15:00:16.046Z,8.27
2023-03-08T15:03:01.140Z,10.50
2023-03-08T15:05:46.526Z,10.80
2023-03-08T15:08:31.707Z,8.63
2023-03-08T15:11:17.066Z,7.87
2023-03-08T15:14:02.449Z,8.10
2023-03-08T15:16:47.592Z,7.80
2023-03-08T15:19:32.896Z,7.67
2023-03-08T15:22:17.939Z,9.00
2023-03-08T15:25:03.065Z,8.40
2023-03-08T15:27:49.748Z,8.13
2023-03-08T15:30:34.974Z,9.07
2023-03-08T15:33:20.940Z,11.13
2023-03-08T15:36:06.617Z,11.53
2023-03-08T15:38:51.803Z,12.90
2023-03-08T15:41:37.324Z,9.67
2023-03-08T15:44:22.178Z,12.07
2023-03-08T15:47:09.519Z,12.80
2023-03-08T15:49:56.357Z,14.77
2023-03-08T15:52:45.098Z,11.47
2023-03-08T15:55:31.849Z,12.20
2023-03-08T15:58:16.649Z,11.40
2023-03-08T16:01:02.108Z,26.93
2023-03-08T16:03:47.754Z,12.30
2023-03-08T16:06:32.919Z,10.60
2023-03-08T16:09:17.887Z,14.27
2023-03-08T16:12:02.967Z,8.87
2023-03-08T16:14:50.058Z,10.30
2023-03-08T16:17:35.512Z,18.03
2023-03-08T16:20:20.829Z,15.33
2023-03-08T16:23:06.266Z,12.10
2023-03-08T16:26:14.575Z,15.77
2023-03-08T16:29:00.713Z,10.63
2023-03-08T16:31:45.929Z,15.53
2023-03-08T16:34:31.496Z,12.47
2023-03-08T16:37:20.840Z,11.60
2023-03-08T16:40:06.450Z,17.93
2023-03-08T16:42:51.855Z,15.70
2023-03-08T16:45:38.232Z,13.33
2023-03-08T16:48:23.916Z,14.37
2023-03-08T16:51:14.134Z,13.70
2023-03-08T16:53:59.336Z,16.30
2023-03-08T16:56:44.694Z,14.13
2023-03-08T16:59:30.153Z,17.83
2023-03-08T17:02:18.575Z,14.23
2023-03-08T17:05:03.728Z,16.23
2023-03-08T17:07:48.970Z,16.53
2023-03-08T18:37:38.041Z,19.13
2023-03-08T18:40:45.867Z,18.33
2023-03-08T18:48:00.228Z,18.20
2023-03-08T18:50:48.672Z,18.93
2023-03-08T18:54:09.037Z,19.17
2023-03-08T19:09:35.731Z,17.93
2023-03-08T19:12:21.629Z,18.50
2023-03-08T19:15:08.147Z,18.27
2023-03-08T19:17:58.710Z,17.63
2023-03-08T19:20:46.509Z,18.00
2023-03-08T19:23:33.145Z,19.17
2023-03-08T19:26:24.948Z,19.77
2023-03-08T19:29:13.346Z,19.67
2023-03-08T19:32:02.416Z,20.47
2023-03-08T19:34:47.524Z,23.57
2023-03-08T19:37:32.786Z,20.27
2023-03-08T19:40:18.379Z,19.83
2023-03-08T19:43:03.502Z,20.30
2023-03-08T19:45:49.665Z,24.37
2023-03-08T19:48:35.960Z,20.93
2023-03-08T19:51:20.986Z,21.97
2023-03-08T19:54:06.479Z,22.60
2023-03-08T19:56:52.510Z,19.03
2023-03-08T19:59:37.932Z,19.63
2023-03-08T20:02:22.797Z,21.50
2023-03-08T20:05:08.513Z,19.63
2023-03-08T20:07:53.644Z,22.93
2023-03-08T20:10:39.277Z,21.93
2023-03-08T20:13:24.535Z,22.67
2023-03-08T20:16:09.352Z,20.17
2023-03-08T20:18:54.777Z,20.27
2023-03-08T20:21:40.092Z,20.03
2023-03-08T20:24:25.487Z,21.57
2023-03-08T20:27:10.320Z,19.30
2023-03-08T20:29:55.806Z,20.53
2023-03-08T20:32:41.005Z,20.93
2023-03-08T20:35:26.334Z,20.53
2023-03-08T20:38:11.325Z,121.37
2023-03-08T20:41:04.492Z,25.77
2023-03-08T20:43:51.649Z,19.50
2023-03-08T20:46:36.746Z,21.47
2023-03-08T20:49:22.207Z,19.83
2023-03-08T20:52:08.936Z,21.77
2023-03-08T20:54:55.370Z,19.43
2023-03-08T20:57:40.976Z,19.70
2023-03-08T21:00:26.091Z,20.60
2023-03-08T21:03:11.659Z,20.93
2023-03-08T21:05:57.062Z,21.33
2023-03-08T21:08:42.498Z,21.53
2023-03-08T21:11:28.638Z,23.40
2023-03-08T21:14:14.098Z,23.70
2023-03-08T21:16:59.281Z,22.80
2023-03-08T21:19:44.379Z,24.07
2023-03-08T21:22:31.307Z,22.37
2023-03-08T21:25:17.831Z,23.10
2023-03-08T21:28:02.870Z,23.70
2023-03-08T21:30:48.790Z,33.17
2023-03-08T21:33:33.991Z,43.50
2023-03-08T21:36:19.804Z,34.17
2023-03-08T21:39:06.367Z,23.03
2023-03-08T21:41:51.735Z,28.97
2023-03-08T21:44:36.543Z,32.23
2023-03-08T21:47:21.435Z,24.70
2023-03-08T21:50:08.394Z,27.70
2023-03-08T21:52:54.850Z,25.60
2023-03-08T21:55:41.755Z,23.87
2023-03-08T21:58:27.029Z,24.90
2023-03-08T22:01:24.256Z,26.00
2023-03-08T22:04:09.926Z,27.10
2023-03-08T22:06:55.904Z,24.33
2023-03-08T22:09:40.946Z,24.87
2023-03-08T22:12:26.037Z,25.80
2023-03-08T22:15:11.238Z,25.20
2023-03-08T22:17:56.492Z,26.53
2023-03-08T22:20:43.564Z,27.27
2023-03-08T22:23:28.766Z,28.53
2023-03-08T22:26:14.317Z,29.77
2023-03-08T22:28:59.756Z,29.57
2023-03-08T22:31:45.170Z,28.77
2023-03-08T22:34:30.666Z,30.27
2023-03-08T22:37:16.079Z,30.33
2023-03-08T22:40:01.815Z,29.27
2023-03-08T22:42:47.140Z,28.57
2023-03-08T22:45:32.613Z,28.50
2023-03-08T22:48:17.966Z,29.23
2023-03-08T22:51:10.771Z,28.50
2023-03-08T22:53:56.854Z,29.00
2023-03-08T22:56:42.103Z,30.80
2023-03-08T22:59:27.403Z,29.33
2023-03-08T23:02:13.813Z,30.50
2023-03-08T23:04:58.768Z,31.27
2023-03-08T23:07:44.275Z,29.67
2023-03-08T23:10:29.319Z,31.10
2023-03-08T23:13:31.173Z,29.90
2023-03-08T23:16:19.487Z,29.40
2023-03-08T23:19:04.935Z,29.43
2023-03-08T23:21:49.979Z,29.33
2023-03-08T23:24:35.162Z,31.50
2023-03-08T23:27:20.167Z,30.27
2023-03-08T23:30:06.662Z,28.47
2023-03-08T23:32:52.096Z,29.30
2023-03-08T23:35:37.427Z,29.10
2023-03-08T23:38:22.865Z,29.50
2023-03-08T23:41:10.324Z,29.00
2023-03-08T23:43:57.664Z,29.33
2023-03-08T23:46:42.866Z,29.93
2023-03-08T23:49:28.316Z,29.37
2023-03-08T23:52:13.839Z,27.83
2023-03-08T23:54:58.729Z,28.00
2023-03-08T23:57:43.989Z,27.63
